createdAt,value
2022-09-03T00:00:06.117Z,94620.38
2022-09-03T00:02:23.260Z,94626.09
2022-09-03T00:04:36.769Z,94630.75
2022-09-03T00:06:46.536Z,94626.88
2022-09-03T00:09:08.487Z,94626.47
2022-09-03T00:11:19.652Z,94627.31
2022-09-03T00:13:39.270Z,94634.66
2022-09-03T00:15:41.226Z,94631.78
2022-09-03T00:17:54.055Z,94629.56
2022-09-03T00:19:58.406Z,94629.75
2022-09-03T00:22:03.746Z,94622.41
2022-09-03T00:24:14.007Z,94623.84
2022-09-03T00:26:23.170Z,94622.03
2022-09-03T00:28:29.972Z,94621.41
2022-09-03T00:30:33.801Z,94614.69
2022-09-03T00:32:52.881Z,94616.91
2022-09-03T00:34:59.368Z,94621.59
2022-09-03T00:37:01.224Z,94624.38
2022-09-03T00:39:03.210Z,94625.03
2022-09-03T00:41:07.233Z,94617.03
2022-09-03T00:43:14.982Z,94624.72
2022-09-03T00:45:31.468Z,94616.84
2022-09-03T00:47:51.753Z,94619.91
2022-09-03T00:50:03.185Z,94626.47
2022-09-03T00:52:19.037Z,94617.63
2022-09-03T00:54:40.515Z,94623.59
2022-09-03T00:57:25.802Z,94616.47
2022-09-03T00:59:32.283Z,94621.56
2022-09-03T01:01:41.455Z,94626.44
2022-09-03T01:04:09.565Z,94626.06
2022-09-03T01:06:20.333Z,94629.69
2022-09-03T01:08:35.960Z,94625.03
2022-09-03T01:10:57.362Z,94634.19
2022-09-03T01:13:14.105Z,94616.06
2022-09-03T01:15:30.313Z,94630.09
2022-09-03T01:17:54.916Z,94624.00
2022-09-03T01:20:09.891Z,94624.00
2022-09-03T01:22:29.348Z,94622.38
2022-09-03T01:24:53.294Z,94627.47
2022-09-03T01:26:54.884Z,94637.44
2022-09-03T01:29:12.547Z,94631.97
2022-09-03T01:31:52.010Z,94640.69
2022-09-03T01:34:23.605Z,94649.25
2022-09-03T01:37:03.032Z,94655.53
2022-09-03T01:39:24.008Z,94655.34
2022-09-03T01:42:07.067Z,94661.44
2022-09-03T01:44:16.914Z,94659.59
2022-09-03T01:46:40.797Z,94654.13
2022-09-03T01:48:49.584Z,94648.44
2022-09-03T01:51:00.324Z,94639.47
2022-09-03T01:53:11.121Z,94642.75
2022-09-03T01:55:29.310Z,94638.06
2022-09-03T01:57:56.281Z,94641.72
2022-09-03T02:00:08.700Z,94638.69
2022-09-03T02:02:12.821Z,94638.47
2022-09-03T02:04:20.660Z,94636.84
2022-09-03T02:06:22.454Z,94634.38
2022-09-03T02:08:24.566Z,94637.88
2022-09-03T02:10:33.362Z,94629.72
2022-09-03T02:12:38.512Z,94647.25
2022-09-03T02:14:40.585Z,94651.72
2022-09-03T02:16:44.486Z,94653.72
2022-09-03T02:18:48.748Z,94655.53
2022-09-03T02:20:53.234Z,94648.22
2022-09-03T02:22:56.620Z,94645.59
2022-09-03T02:24:58.521Z,94648.22
2022-09-03T02:27:00.178Z,94649.25
2022-09-03T02:29:02.500Z,94648.66
2022-09-03T02:31:04.993Z,94647.63
2022-09-03T02:33:06.972Z,94654.94
2022-09-03T02:35:09.274Z,94659.44
2022-09-03T02:37:18.609Z,94656.19
2022-09-03T02:39:20.342Z,94654.59
2022-09-03T02:41:22.890Z,94659.44
2022-09-03T02:43:38.838Z,94660.66
2022-09-03T02:45:48.811Z,94657.00
2022-09-03T02:47:52.995Z,94665.53
2022-09-03T02:49:54.897Z,94658.63
2022-09-03T02:52:02.218Z,94664.53
2022-09-03T02:54:04.316Z,94669.81
2022-09-03T02:56:06.703Z,94671.59
2022-09-03T02:58:08.964Z,94670.59
2022-09-03T03:00:11.014Z,94674.06
2022-09-03T03:02:13.935Z,94656.16
2022-09-03T03:04:15.667Z,94662.06
2022-09-03T03:06:21.066Z,94665.16
2022-09-03T03:08:25.239Z,94664.53
2022-09-03T03:10:27.047Z,94663.91
2022-09-03T03:12:31.451Z,94666.19
2022-09-03T03:14:33.187Z,94658.69
2022-09-03T03:16:35.165Z,94659.69
2022-09-03T03:18:36.980Z,94663.50
2022-09-03T03:20:39.099Z,94659.78
2022-09-03T03:22:40.745Z,94651.34
2022-09-03T03:24:42.421Z,94651.16
2022-09-03T03:26:44.146Z,94656.63
2022-09-03T03:28:48.893Z,94658.19
2022-09-03T03:30:51.169Z,94654.72
2022-09-03T03:32:56.367Z,94665.34
2022-09-03T03:34:58.132Z,94667.13
2022-09-03T03:37:00.237Z,94662.59
2022-09-03T03:39:02.356Z,94658.66
2022-09-03T03:41:08.296Z,94664.91
2022-09-03T03:43:10.022Z,94657.06
2022-09-03T03:45:11.646Z,94662.31
2022-09-03T03:47:13.403Z,94664.97
2022-09-03T03:49:15.094Z,94667.25
2022-09-03T03:51:16.855Z,94660.56
2022-09-03T03:53:18.956Z,94661.13
2022-09-03T03:55:20.581Z,94661.69
2022-09-03T03:57:23.054Z,94666.41
2022-09-03T03:59:24.835Z,94672.53
2022-09-03T04:01:27.615Z,94674.56
2022-09-03T04:03:29.426Z,94674.84
2022-09-03T04:05:33.635Z,94673.50
2022-09-03T04:07:35.554Z,94663.31
2022-09-03T04:09:37.897Z,94664.81
2022-09-03T04:11:39.569Z,94667.34
2022-09-03T04:13:42.785Z,94657.19
2022-09-03T04:15:45.064Z,94659.28
2022-09-03T04:17:46.738Z,94658.13
2022-09-03T04:19:48.835Z,94658.56
2022-09-03T04:21:50.501Z,94656.56
2022-09-03T04:23:52.933Z,94660.19
2022-09-03T04:25:54.809Z,94668.09
2022-09-03T04:27:56.529Z,94666.28
2022-09-03T04:29:58.302Z,94668.91
2022-09-03T04:32:18.524Z,94668.72
2022-09-03T04:34:20.163Z,94678.63
2022-09-03T04:36:24.029Z,94680.91
2022-09-03T04:38:25.732Z,94681.97
2022-09-03T04:40:27.451Z,94689.72
2022-09-03T04:42:29.065Z,94688.31
2022-09-03T04:44:30.694Z,94695.66
2022-09-03T04:46:35.082Z,94697.25
2022-09-03T04:48:37.846Z,94699.47
2022-09-03T04:50:40.169Z,94702.94
2022-09-03T04:52:41.831Z,94710.28
2022-09-03T04:54:43.485Z,94717.69
2022-09-03T04:56:45.110Z,94717.09
2022-09-03T04:58:51.111Z,94718.28
2022-09-03T05:00:53.263Z,94720.06
2022-09-03T05:02:54.980Z,94722.94
2022-09-03T05:04:56.705Z,94729.81
2022-09-03T05:06:58.356Z,94726.34
2022-09-03T05:09:00.735Z,94724.75
2022-09-03T05:11:04.297Z,94725.97
2022-09-03T05:13:06.140Z,94727.59
2022-09-03T05:15:08.525Z,94727.81
2022-09-03T05:17:10.162Z,94721.22
2022-09-03T05:19:12.644Z,94723.47
2022-09-03T05:21:16.639Z,94725.38
2022-09-03T05:23:19.871Z,94723.72
2022-09-03T05:25:21.914Z,94722.13
2022-09-03T05:27:24.196Z,94729.00
2022-09-03T05:29:26.101Z,94735.94
2022-09-03T05:31:30.281Z,94741.59
2022-09-03T05:33:36.495Z,94730.22
2022-09-03T05:35:38.789Z,94729.44
2022-09-03T05:37:40.455Z,94736.72
2022-09-03T05:39:42.233Z,94739.66
2022-09-03T05:41:43.965Z,94735.53
2022-09-03T05:43:45.597Z,94734.09
2022-09-03T05:45:47.532Z,94746.47
2022-09-03T05:47:49.268Z,94735.34
2022-09-03T05:49:51.189Z,94741.28
2022-09-03T05:51:52.935Z,94737.56
2022-09-03T05:53:55.650Z,94738.47
2022-09-03T05:55:58.897Z,94743.00
2022-09-03T05:58:00.692Z,94743.66
2022-09-03T06:00:02.604Z,94749.41
2022-09-03T06:02:05.531Z,94745.50
2022-09-03T06:04:09.851Z,94754.47
2022-09-03T06:06:13.781Z,94744.06
2022-09-03T06:08:15.447Z,94750.81
2022-09-03T06:10:17.259Z,94754.91
2022-09-03T06:12:18.887Z,94753.34
2022-09-03T06:14:20.867Z,94760.84
2022-09-03T06:16:30.838Z,94757.78
2022-09-03T06:18:33.992Z,94746.78
2022-09-03T06:20:37.290Z,94746.16
2022-09-03T06:22:39.206Z,94752.78
2022-09-03T06:24:40.954Z,94748.41
2022-09-03T06:26:43.389Z,94752.69
2022-09-03T06:28:45.691Z,94749.69
2022-09-03T06:30:48.111Z,94750.22
2022-09-03T06:32:50.673Z,94756.34
2022-09-03T06:34:52.342Z,94754.50
2022-09-03T06:36:54.784Z,94759.06
2022-09-03T06:38:57.351Z,94751.16
2022-09-03T06:41:04.250Z,94757.13
2022-09-03T06:43:05.902Z,94760.97
2022-09-03T06:45:12.117Z,94756.06
2022-09-03T06:47:14.080Z,94762.53
2022-09-03T06:49:15.863Z,94761.59
2022-09-03T06:51:26.111Z,94756.06
2022-09-03T06:53:31.967Z,94759.63
2022-09-03T06:55:33.858Z,94758.28
2022-09-03T06:57:35.475Z,94761.16
2022-09-03T06:59:37.137Z,94764.31
2022-09-03T07:01:43.510Z,94766.81
2022-09-03T07:03:48.448Z,94771.91
2022-09-03T07:05:50.049Z,94767.19
2022-09-03T07:07:51.624Z,94773.88
2022-09-03T07:09:53.272Z,94773.38
2022-09-03T07:11:55.443Z,94771.28
2022-09-03T07:13:58.248Z,94774.75
2022-09-03T07:16:05.190Z,94772.78
2022-09-03T07:18:07.510Z,94773.22
2022-09-03T07:20:09.421Z,94773.28
2022-09-03T07:22:11.681Z,94778.56
2022-09-03T07:24:13.397Z,94777.56
2022-09-03T07:26:17.664Z,94783.47
2022-09-03T07:28:19.379Z,94786.53
2022-09-03T07:30:21.175Z,94787.53
2022-09-03T07:32:22.844Z,94789.19
2022-09-03T07:34:26.791Z,94788.38
2022-09-03T07:36:30.496Z,94798.59
2022-09-03T07:38:37.498Z,94790.00
2022-09-03T07:40:42.162Z,94792.44
2022-09-03T07:42:43.908Z,94793.66
2022-09-03T07:44:45.582Z,94794.06
2022-09-03T07:46:48.245Z,94800.81
2022-09-03T07:48:52.138Z,94795.06
2022-09-03T07:50:59.971Z,94793.22
2022-09-03T07:53:01.700Z,94799.75
2022-09-03T07:55:04.995Z,94794.47
2022-09-03T07:57:07.222Z,94803.84
2022-09-03T07:59:09.515Z,94791.47
2022-09-03T08:01:16.390Z,94802.00
2022-09-03T08:03:19.083Z,94803.00
2022-09-03T08:05:21.404Z,94796.44
2022-09-03T08:07:23.189Z,94801.53
2022-09-03T08:09:25.339Z,94800.72
2022-09-03T08:11:28.477Z,94804.78
2022-09-03T08:13:30.341Z,94809.06
2022-09-03T08:15:33.054Z,94804.28
2022-09-03T08:17:34.696Z,94807.13
2022-09-03T08:19:38.349Z,94803.63
2022-09-03T08:21:43.446Z,94798.47
2022-09-03T08:23:47.734Z,94800.19
2022-09-03T08:25:49.379Z,94802.53
2022-09-03T08:27:51.473Z,94799.22
2022-09-03T08:29:53.221Z,94795.41
2022-09-03T08:31:56.131Z,94802.31
2022-09-03T08:33:59.400Z,94804.34
2022-09-03T08:36:01.039Z,94796.63
2022-09-03T08:38:06.029Z,94800.34
2022-09-03T08:40:12.275Z,94798.53
2022-09-03T08:42:50.314Z,94791.81
2022-09-03T08:44:58.271Z,94789.75
2022-09-03T08:47:09.862Z,94803.75
2022-09-03T08:49:15.385Z,94796.44
2022-09-03T08:51:29.963Z,94797.09
2022-09-03T08:53:46.940Z,94792.31
2022-09-03T08:55:56.060Z,94801.31
2022-09-03T08:58:07.226Z,94801.63
2022-09-03T09:00:09.379Z,94800.59
2022-09-03T09:02:28.206Z,94798.34
2022-09-03T09:05:00.429Z,94799.75
2022-09-03T09:07:14.199Z,94794.28
2022-09-03T09:10:01.035Z,94805.19
2022-09-03T09:12:46.846Z,94807.06
2022-09-03T09:15:09.189Z,94800.00
2022-09-03T09:17:28.230Z,94799.56
2022-09-03T09:19:38.830Z,94806.63
2022-09-03T09:21:46.275Z,94804.56
2022-09-03T09:23:49.504Z,94804.59
2022-09-03T09:25:51.850Z,94805.78
2022-09-03T09:28:30.686Z,94804.38
2022-09-03T09:30:32.902Z,94806.38
2022-09-03T09:32:38.554Z,94806.28
2022-09-03T09:34:41.368Z,94811.88
2022-09-03T09:36:47.955Z,94804.91
2022-09-03T09:38:49.657Z,94814.44
2022-09-03T09:40:51.330Z,94808.88
2022-09-03T09:43:04.103Z,94811.91
2022-09-03T09:45:11.281Z,94810.91
2022-09-03T09:47:39.838Z,94805.88
2022-09-03T09:49:55.106Z,94806.72
2022-09-03T09:52:12.170Z,94810.19
2022-09-03T09:54:20.322Z,94806.44
2022-09-03T09:56:26.192Z,94809.31
2022-09-03T09:58:30.821Z,94804.84
2022-09-03T10:00:35.219Z,94812.38
2022-09-03T10:02:38.262Z,94817.78
2022-09-03T10:04:40.532Z,94820.53
2022-09-03T10:06:59.206Z,94816.38
2022-09-03T10:09:11.384Z,94812.94
2022-09-03T10:11:14.372Z,94801.47
2022-09-03T10:13:19.508Z,94806.91
2022-09-03T10:15:33.809Z,94803.97
2022-09-03T10:17:56.641Z,94810.78
2022-09-03T10:20:23.989Z,94799.00
2022-09-03T10:22:26.475Z,94805.47
2022-09-03T10:24:59.480Z,94797.78
2022-09-03T10:27:01.890Z,94794.69
2022-09-03T10:29:08.762Z,94795.75
2022-09-03T10:31:36.770Z,94794.69
2022-09-03T10:33:49.572Z,94797.50
2022-09-03T10:36:04.874Z,94794.13
2022-09-03T10:38:30.132Z,94800.72
2022-09-03T10:40:41.647Z,94787.56
2022-09-03T10:43:33.927Z,94798.06
2022-09-03T10:45:41.670Z,94799.13
2022-09-03T10:48:01.416Z,94798.75
2022-09-03T10:50:27.304Z,94797.34
2022-09-03T10:52:49.596Z,94797.91
2022-09-03T10:55:15.234Z,94797.03
2022-09-03T10:57:23.175Z,94803.31
2022-09-03T10:59:28.965Z,94795.41
2022-09-03T11:01:40.411Z,94802.75
2022-09-03T11:03:52.410Z,94798.59
2022-09-03T11:06:00.596Z,94803.91
2022-09-03T11:08:23.659Z,94801.66
2022-09-03T11:10:30.965Z,94793.94
2022-09-03T11:12:37.149Z,94801.75
2022-09-03T11:14:44.875Z,94801.69
2022-09-03T11:16:55.213Z,94794.81
2022-09-03T11:19:05.582Z,94809.09
2022-09-03T11:21:12.401Z,94805.53
2022-09-03T11:23:14.953Z,94796.91
2022-09-03T11:25:20.081Z,94809.28
2022-09-03T11:27:53.315Z,94796.69
2022-09-03T11:30:09.712Z,94814.94
2022-09-03T11:32:20.964Z,94801.75
2022-09-03T11:34:23.591Z,94799.19
2022-09-03T11:36:36.725Z,94794.84
2022-09-03T11:38:39.687Z,94795.84
2022-09-03T11:41:14.596Z,94790.19
2022-09-03T11:43:25.235Z,94797.50
2022-09-03T11:45:27.043Z,94787.34
2022-09-03T11:47:40.262Z,94789.31
2022-09-03T11:49:50.886Z,94803.88
2022-09-03T11:52:03.737Z,94788.84
2022-09-03T11:54:12.742Z,94801.97
2022-09-03T11:56:19.401Z,94803.34
2022-09-03T11:58:29.779Z,94805.19
2022-09-03T12:00:31.636Z,94803.56
2022-09-03T12:02:36.314Z,94795.88
2022-09-03T12:04:53.523Z,94792.19
2022-09-03T12:07:09.615Z,94786.34
2022-09-03T12:09:26.974Z,94787.25
2022-09-03T12:11:37.396Z,94790.31
2022-09-03T12:13:45.036Z,94787.38
2022-09-03T12:15:56.043Z,94780.19
2022-09-03T12:18:20.399Z,94774.03
2022-09-03T12:20:28.696Z,94769.94
2022-09-03T12:22:31.432Z,94779.59
2022-09-03T12:24:37.742Z,94788.53
2022-09-03T12:26:42.142Z,94775.28
2022-09-03T12:28:49.645Z,94768.56
2022-09-03T12:30:54.064Z,94779.94
2022-09-03T12:33:11.083Z,94777.13
2022-09-03T12:40:07.330Z,94783.19
2022-09-03T12:42:14.457Z,94779.63
2022-09-03T12:44:39.478Z,94779.50
2022-09-03T12:46:42.035Z,94773.56
2022-09-03T12:53:41.009Z,94759.25
2022-09-03T12:55:53.966Z,94768.34
2022-09-03T12:58:26.645Z,94765.09
2022-09-03T13:00:29.937Z,94754.41
2022-09-03T13:02:46.330Z,94758.91
2022-09-03T13:04:48.058Z,94764.38
2022-09-03T13:07:06.358Z,94754.16
2022-09-03T13:09:09.276Z,94761.00
2022-09-03T13:11:11.059Z,94750.13
2022-09-03T13:13:32.266Z,94746.91
2022-09-03T13:15:34.089Z,94757.66
2022-09-03T13:17:57.488Z,94747.91
2022-09-03T13:20:08.439Z,94745.81
2022-09-03T13:22:18.828Z,94745.47
2022-09-03T13:24:58.484Z,94735.00
2022-09-03T13:27:03.312Z,94740.13
2022-09-03T13:29:14.785Z,94731.66
2022-09-03T13:31:31.749Z,94723.41
2022-09-03T13:33:44.992Z,94750.09
2022-09-03T13:36:15.144Z,94732.44
2022-09-03T13:38:37.996Z,94730.97
2022-09-03T13:40:50.153Z,94735.44
2022-09-03T13:42:55.681Z,94735.78
2022-09-03T13:45:16.913Z,94731.22
2022-09-03T13:47:33.822Z,94734.19
2022-09-03T13:50:01.627Z,94739.06
2022-09-03T13:52:07.791Z,94727.97
2022-09-03T13:54:48.190Z,94726.88
2022-09-03T13:56:58.385Z,94732.22
2022-09-03T13:59:19.890Z,94727.06
2022-09-03T14:01:42.915Z,94737.06
2022-09-03T14:03:49.138Z,94739.75
2022-09-03T14:06:06.876Z,94748.81
2022-09-03T14:08:14.413Z,94737.69
2022-09-03T14:10:54.410Z,94746.63
2022-09-03T14:13:04.930Z,94746.41
2022-09-03T14:15:20.913Z,94744.78
2022-09-03T14:17:57.873Z,94733.97
2022-09-03T14:20:21.361Z,94741.06
2022-09-03T14:22:38.496Z,94739.00
2022-09-03T14:25:03.666Z,94738.16
2022-09-03T14:27:06.034Z,94735.34
2022-09-03T14:29:10.571Z,94733.53
2022-09-03T14:31:28.278Z,94732.53
2022-09-03T14:33:39.624Z,94732.81
2022-09-03T14:35:59.856Z,94738.72
2022-09-03T14:38:10.302Z,94743.72
2022-09-03T14:40:15.948Z,94730.03
2022-09-03T14:43:11.545Z,94729.22
2022-09-03T14:45:22.906Z,94729.88
2022-09-03T14:47:35.725Z,94736.41
2022-09-03T14:49:51.190Z,94733.81
2022-09-03T14:52:13.389Z,94737.88
2022-09-03T14:54:50.404Z,94737.28
2022-09-03T14:57:30.191Z,94736.03
2022-09-03T14:59:38.407Z,94746.03
2022-09-03T15:01:40.235Z,94733.25
2022-09-03T15:04:18.716Z,94740.09
2022-09-03T15:06:28.134Z,94735.22
2022-09-03T15:08:54.471Z,94747.44
2022-09-03T15:11:00.128Z,94743.00
2022-09-03T15:13:09.931Z,94744.59
2022-09-03T15:15:22.003Z,94754.03
2022-09-03T15:17:45.407Z,94756.22
2022-09-03T15:20:14.970Z,94749.91
2022-09-03T15:22:29.757Z,94753.56
2022-09-03T15:24:52.013Z,94756.63
2022-09-03T15:27:14.165Z,94750.91
2022-09-03T15:29:31.379Z,94757.41
2022-09-03T15:31:54.410Z,94753.69
2022-09-03T15:34:11.421Z,94751.59
2022-09-03T15:36:23.697Z,94754.47
2022-09-03T15:38:54.603Z,94753.59
2022-09-03T15:40:58.149Z,94756.19
2022-09-03T15:43:07.326Z,94759.97
2022-09-03T15:45:19.582Z,94763.53
2022-09-03T15:48:07.786Z,94759.06
2022-09-03T15:50:27.174Z,94770.66
2022-09-03T15:52:40.935Z,94770.91
2022-09-03T15:54:49.065Z,94766.00
2022-09-03T15:56:55.932Z,94764.97
2022-09-03T15:59:18.174Z,94770.06
2022-09-03T16:01:30.215Z,94763.69
2022-09-03T16:03:47.672Z,94769.03
2022-09-03T16:05:55.484Z,94765.75
2022-09-03T16:08:19.150Z,94772.16
2022-09-03T16:10:25.464Z,94775.31
2022-09-03T16:13:04.734Z,94780.31
2022-09-03T16:15:13.129Z,94774.84
2022-09-03T16:17:47.115Z,94782.00
2022-09-03T16:19:54.499Z,94787.91
2022-09-03T16:22:00.687Z,94791.44
2022-09-03T16:24:17.679Z,94788.06
2022-09-03T16:26:26.527Z,94790.41
2022-09-03T16:28:48.414Z,94796.84
2022-09-03T16:31:16.256Z,94797.25
2022-09-03T16:34:01.811Z,94802.19
2022-09-03T16:36:21.624Z,94813.75
2022-09-03T16:38:49.834Z,94804.44
2022-09-03T16:41:13.307Z,94806.34
2022-09-03T16:43:41.715Z,94804.06
2022-09-03T16:46:00.929Z,94807.75
2022-09-03T16:48:36.129Z,94808.00
2022-09-03T16:51:08.923Z,94817.53
2022-09-03T16:53:44.281Z,94813.78
2022-09-03T16:55:48.885Z,94806.97
2022-09-03T16:58:03.224Z,94813.19
2022-09-03T17:00:12.816Z,94810.97
2022-09-03T17:02:41.966Z,94820.16
2022-09-03T17:04:56.843Z,94825.09
2022-09-03T17:07:04.982Z,94830.34
2022-09-03T17:09:31.011Z,94819.97
2022-09-03T17:11:38.402Z,94826.34
2022-09-03T17:13:51.989Z,94837.81
2022-09-03T17:16:03.342Z,94847.75
2022-09-03T17:18:11.112Z,94853.28
2022-09-03T17:20:25.138Z,94854.28
2022-09-03T17:22:39.838Z,94853.47
2022-09-03T17:25:14.121Z,94857.22
2022-09-03T17:27:35.881Z,94848.84
2022-09-03T17:29:52.306Z,94861.81
2022-09-03T17:32:04.696Z,94860.34
2022-09-03T17:34:13.828Z,94868.78
2022-09-03T17:36:24.385Z,94879.75
2022-09-03T17:38:45.763Z,94887.56
2022-09-03T17:40:47.955Z,94884.28
2022-09-03T17:43:00.753Z,94892.50
2022-09-03T17:45:05.615Z,94889.75
2022-09-03T17:47:22.634Z,94887.94
2022-09-03T17:49:29.376Z,94892.63
2022-09-03T17:51:39.870Z,94897.75
2022-09-03T17:53:55.976Z,94898.34
2022-09-03T17:56:01.733Z,94901.97
2022-09-03T17:58:31.660Z,94904.44
2022-09-03T18:00:38.500Z,94907.94
2022-09-03T18:02:50.734Z,94905.03
2022-09-03T18:05:04.665Z,94907.28
2022-09-03T18:07:11.531Z,94911.97
2022-09-03T18:09:16.123Z,94920.34
2022-09-03T18:11:40.784Z,94912.78
2022-09-03T18:14:16.618Z,94918.69
2022-09-03T18:16:27.695Z,94924.91
2022-09-03T18:18:32.845Z,94926.56
2022-09-03T18:21:27.563Z,94924.13
2022-09-03T18:24:07.657Z,94936.63
2022-09-03T18:26:45.010Z,94927.41
2022-09-03T18:29:22.908Z,94924.75
2022-09-03T18:31:42.947Z,94921.91
2022-09-03T18:34:03.188Z,94928.84
2022-09-03T18:36:23.962Z,94931.75
2022-09-03T18:38:46.427Z,94930.53
2022-09-03T18:41:17.467Z,94928.25
2022-09-03T18:44:09.256Z,94933.72
2022-09-03T18:50:07.512Z,94943.03
2022-09-03T18:52:36.522Z,94933.69
2022-09-03T18:55:08.045Z,94939.06
2022-09-03T18:57:44.773Z,94930.28
2022-09-03T19:00:28.095Z,94930.91
2022-09-03T19:03:17.103Z,94931.50
2022-09-03T19:05:55.477Z,94941.94
2022-09-03T19:08:38.526Z,94948.44
2022-09-03T19:11:07.859Z,94950.69
2022-09-03T19:13:44.614Z,94948.59
2022-09-03T19:16:11.774Z,94939.66
2022-09-03T19:19:13.737Z,94948.28
2022-09-03T19:22:00.857Z,94953.88
2022-09-03T19:24:21.868Z,94957.72
2022-09-03T19:26:45.785Z,94961.59
2022-09-03T19:29:07.001Z,94974.50
2022-09-03T19:31:55.385Z,94968.00
2022-09-03T19:34:32.374Z,94971.00
2022-09-03T19:37:09.439Z,94964.72
2022-09-03T19:39:55.681Z,94976.16
2022-09-03T19:42:29.725Z,94971.84
2022-09-03T19:45:01.156Z,94975.50
2022-09-03T19:47:23.092Z,94977.09
2022-09-03T19:49:49.328Z,94982.44
2022-09-03T19:52:09.320Z,94986.91
2022-09-03T19:54:29.666Z,94984.88
2022-09-03T19:56:50.305Z,94982.81
2022-09-03T19:59:16.336Z,94987.09
2022-09-03T20:01:38.279Z,94993.00
2022-09-03T20:03:58.748Z,94987.50
2022-09-03T20:06:21.470Z,94987.28
2022-09-03T20:08:42.398Z,94981.78
2022-09-03T20:10:44.938Z,94985.28
2022-09-03T20:12:51.722Z,94979.34
2022-09-03T20:14:53.497Z,94984.25
2022-09-03T20:17:36.700Z,94981.78
2022-09-03T20:20:00.128Z,94987.09
2022-09-03T20:22:24.524Z,94994.47
2022-09-03T20:24:59.137Z,94985.50
2022-09-03T20:27:28.222Z,94990.00
2022-09-03T20:29:51.545Z,94985.09
2022-09-03T20:32:06.942Z,94993.66
2022-09-03T20:34:08.651Z,95001.03
2022-09-03T20:36:22.774Z,95000.22
2022-09-03T20:38:48.638Z,95009.84
2022-09-03T20:41:12.075Z,95000.22
2022-09-03T20:43:33.403Z,95005.31
2022-09-03T20:45:54.056Z,95004.69
2022-09-03T20:48:22.177Z,95000.00
2022-09-03T20:50:43.855Z,95005.97
2022-09-03T20:52:54.620Z,95012.06
2022-09-03T20:55:21.920Z,95012.31
2022-09-03T20:57:52.587Z,95005.78
2022-09-03T21:00:10.987Z,95010.66
2022-09-03T21:02:18.745Z,95008.22
2022-09-03T21:04:44.381Z,95013.34
2022-09-03T21:07:12.347Z,95011.28
2022-09-03T21:09:53.146Z,95013.94
2022-09-03T21:12:09.452Z,95006.59
2022-09-03T21:14:40.439Z,95008.84
2022-09-03T21:16:56.200Z,94995.97
2022-09-03T21:19:00.652Z,95003.53
2022-09-03T21:21:53.562Z,94993.34
2022-09-03T21:24:18.570Z,94999.84
2022-09-03T21:26:24.867Z,95004.34
2022-09-03T21:28:37.362Z,95007.00
2022-09-03T21:30:40.862Z,94998.84
2022-09-03T21:32:56.039Z,95007.00
2022-09-03T21:35:11.437Z,95002.94
2022-09-03T21:37:13.826Z,95000.09
2022-09-03T21:39:27.703Z,95005.59
2022-09-03T21:41:45.615Z,95007.22
2022-09-03T21:43:49.840Z,95005.97
2022-09-03T21:46:13.027Z,95006.22
2022-09-03T21:48:25.829Z,95006.78
2022-09-03T21:50:40.195Z,95003.13
2022-09-03T21:53:06.720Z,95008.25
2022-09-03T21:55:38.337Z,94999.44
2022-09-03T21:57:49.509Z,95005.97
2022-09-03T22:00:12.764Z,95003.53
2022-09-03T22:02:21.767Z,95004.97
2022-09-03T22:04:26.116Z,94999.66
2022-09-03T22:06:49.583Z,94997.41
2022-09-03T22:08:57.496Z,94995.78
2022-09-03T22:11:13.203Z,94998.16
2022-09-03T22:13:28.303Z,94994.91
2022-09-03T22:15:30.334Z,95006.13
2022-09-03T22:17:46.947Z,95010.81
2022-09-03T22:19:48.617Z,95009.19
2022-09-03T22:22:00.797Z,95009.59
2022-09-03T22:24:35.898Z,95013.28
2022-09-03T22:26:46.485Z,95018.38
2022-09-03T22:29:02.549Z,95013.28
2022-09-03T22:31:06.833Z,95024.69
2022-09-03T22:33:17.686Z,95015.31
2022-09-03T22:35:36.577Z,95019.19
2022-09-03T22:37:44.066Z,95016.53
2022-09-03T22:39:47.326Z,95013.06
2022-09-03T22:42:16.304Z,95015.91
2022-09-03T22:44:39.589Z,95016.13
2022-09-03T22:47:08.429Z,95016.72
2022-09-03T22:49:34.109Z,95022.22
2022-09-03T22:51:54.074Z,95021.41
2022-09-03T22:54:20.541Z,95017.72
2022-09-03T22:56:22.445Z,95012.41
2022-09-03T22:58:28.936Z,95005.47
2022-09-03T23:00:39.943Z,95009.97
2022-09-03T23:02:41.972Z,95009.75
2022-09-03T23:04:52.687Z,95004.25
2022-09-03T23:07:04.196Z,95006.31
2022-09-03T23:09:09.480Z,95006.53
2022-09-03T23:11:25.517Z,95009.19
2022-09-03T23:13:42.125Z,95010.00
2022-09-03T23:15:46.473Z,95006.53
2022-09-03T23:17:55.053Z,95010.38
2022-09-03T23:20:00.740Z,95014.66
2022-09-03T23:22:07.919Z,95021.41
2022-09-03T23:24:18.850Z,95020.78
2022-09-03T23:26:42.247Z,95030.38
2022-09-03T23:28:50.853Z,95025.09
2022-09-03T23:30:53.094Z,95019.16
2022-09-03T23:32:59.891Z,95026.09
2022-09-03T23:35:12.224Z,95025.09
2022-09-03T23:37:40.589Z,95027.72
2022-09-03T23:40:01.301Z,95020.78
2022-09-03T23:42:11.850Z,95024.66
2022-09-03T23:44:25.796Z,95028.72
2022-09-03T23:46:41.585Z,95028.09
2022-09-03T23:48:43.263Z,95034.44
2022-09-03T23:50:54.111Z,95029.94
2022-09-03T23:53:10.691Z,95032.78
2022-09-03T23:55:23.209Z,95034.81
2022-09-03T23:58:11.166Z,95035.22
